createdAt,value
2023-02-12T00:00:41.151Z,13.97
2023-02-12T00:03:28.219Z,14.40
2023-02-12T00:06:16.213Z,14.43
2023-02-12T00:09:03.421Z,15.27
2023-02-12T00:11:50.381Z,14.73
2023-02-12T00:14:38.220Z,14.80
2023-02-12T00:17:25.247Z,14.80
2023-02-12T00:20:12.265Z,14.70
2023-02-12T00:22:59.265Z,14.93
2023-02-12T00:25:46.297Z,14.90
2023-02-12T00:28:33.521Z,14.73
2023-02-12T00:31:23.449Z,15.60
2023-02-12T00:34:11.463Z,15.33
2023-02-12T00:37:01.288Z,14.80
2023-02-12T00:39:48.234Z,15.73
2023-02-12T00:42:35.160Z,15.73
2023-02-12T00:45:22.124Z,14.90
2023-02-12T00:48:09.052Z,14.93
2023-02-12T00:50:56.397Z,15.10
2023-02-12T00:53:43.471Z,16.20
2023-02-12T00:56:30.416Z,15.30
2023-02-12T00:59:17.422Z,15.33
2023-02-12T01:02:04.346Z,14.87
2023-02-12T01:04:51.643Z,15.67
2023-02-12T01:07:40.611Z,14.47
2023-02-12T01:10:27.684Z,16.07
2023-02-12T01:13:15.403Z,15.50
2023-02-12T01:16:14.260Z,15.57
2023-02-12T01:19:01.699Z,15.53
2023-02-12T01:21:48.672Z,15.00
2023-02-12T01:24:35.722Z,15.63
2023-02-12T01:27:22.677Z,15.97
2023-02-12T01:30:11.963Z,15.10
2023-02-12T01:33:00.592Z,15.57
2023-02-12T01:35:47.541Z,15.77
2023-02-12T01:38:34.583Z,15.77
2023-02-12T01:41:24.737Z,16.50
2023-02-12T01:44:13.520Z,15.23
2023-02-12T01:47:03.233Z,15.27
2023-02-12T01:49:50.174Z,15.30
2023-02-12T01:52:39.909Z,14.90
2023-02-12T01:55:27.708Z,15.50
2023-02-12T01:58:16.282Z,15.70
2023-02-12T02:01:06.169Z,14.80
2023-02-12T02:03:58.169Z,15.93
2023-02-12T02:06:57.011Z,15.93
2023-02-12T02:09:44.368Z,14.93
2023-02-12T02:12:49.820Z,14.97
2023-02-12T02:15:40.237Z,16.27
2023-02-12T02:18:38.408Z,15.57
2023-02-12T02:21:28.279Z,16.47
2023-02-12T02:24:48.941Z,16.33
2023-02-12T02:28:13.736Z,15.77
2023-02-12T02:31:05.606Z,15.77
2023-02-12T02:33:57.618Z,16.17
2023-02-12T02:37:00.161Z,15.67
2023-02-12T02:40:10.428Z,16.03
2023-02-12T02:43:15.957Z,16.30
2023-02-12T02:46:09.818Z,15.23
2023-02-12T02:49:04.778Z,15.77
2023-02-12T02:51:57.738Z,16.17
2023-02-12T02:54:56.963Z,16.80
2023-02-12T02:57:56.064Z,15.93
2023-02-12T03:00:50.322Z,17.10
2023-02-12T03:03:50.982Z,16.20
2023-02-12T03:06:45.699Z,16.97
2023-02-12T03:09:40.233Z,17.20
2023-02-12T03:12:36.419Z,17.67
2023-02-12T03:15:27.224Z,16.13
2023-02-12T03:18:21.077Z,16.57
2023-02-12T03:21:14.286Z,17.63
2023-02-12T03:24:21.445Z,17.27
2023-02-12T03:27:19.136Z,16.67
2023-02-12T03:30:08.147Z,17.33
2023-02-12T03:33:04.522Z,17.80
2023-02-12T03:36:02.438Z,17.60
2023-02-12T03:38:56.281Z,17.37
2023-02-12T03:42:23.638Z,17.17
2023-02-12T03:45:35.625Z,18.20
2023-02-12T03:48:36.407Z,17.93
2023-02-12T03:51:30.264Z,17.47
2023-02-12T03:54:20.078Z,18.57
2023-02-12T03:57:15.769Z,18.67
2023-02-12T04:00:11.773Z,19.43
2023-02-12T04:03:01.909Z,19.13
2023-02-12T04:05:48.844Z,18.80
2023-02-12T04:08:35.773Z,19.03
2023-02-12T04:11:49.776Z,19.40
2023-02-12T04:14:55.426Z,19.07
2023-02-12T04:18:01.548Z,19.33
2023-02-12T04:20:58.833Z,19.73
2023-02-12T04:24:12.141Z,20.50
2023-02-12T04:27:32.255Z,19.90
2023-02-12T04:30:26.229Z,19.93
2023-02-12T04:33:20.744Z,20.83
2023-02-12T04:36:21.545Z,20.27
2023-02-12T04:39:18.914Z,21.13
2023-02-12T04:42:05.966Z,20.17
2023-02-12T04:44:53.452Z,20.63
2023-02-12T04:47:40.424Z,20.90
2023-02-12T04:50:42.676Z,20.27
2023-02-12T04:53:29.645Z,21.47
2023-02-12T04:56:17.920Z,20.57
2023-02-12T04:59:05.054Z,22.10
2023-02-12T05:01:52.161Z,20.40
2023-02-12T05:04:39.297Z,21.23
2023-02-12T05:07:26.608Z,22.07
2023-02-12T05:10:13.635Z,21.63
2023-02-12T05:13:00.585Z,21.00
2023-02-12T05:15:47.576Z,21.43
2023-02-12T05:18:35.433Z,21.20
2023-02-12T05:21:22.400Z,21.63
2023-02-12T05:24:09.412Z,22.77
2023-02-12T05:26:56.396Z,22.63
2023-02-12T05:29:43.464Z,21.57
2023-02-12T05:32:30.429Z,22.20
2023-02-12T05:35:17.509Z,22.23
2023-02-12T05:38:04.508Z,22.17
2023-02-12T05:40:51.396Z,21.27
2023-02-12T05:43:38.405Z,21.80
2023-02-12T05:46:25.448Z,22.10
2023-02-12T05:49:12.427Z,22.43
2023-02-12T05:51:59.357Z,22.37
2023-02-12T05:54:50.662Z,22.77
2023-02-12T05:57:37.579Z,23.43
2023-02-12T06:00:24.843Z,23.40
2023-02-12T06:03:11.832Z,23.47
2023-02-12T06:05:58.737Z,24.60
2023-02-12T06:08:49.146Z,24.50
2023-02-12T06:11:36.527Z,23.57
2023-02-12T06:14:23.533Z,24.33
2023-02-12T06:17:10.504Z,24.77
2023-02-12T06:19:57.434Z,24.20
2023-02-12T06:22:44.385Z,25.67
2023-02-12T06:25:31.725Z,25.23
2023-02-12T06:28:18.702Z,24.87
2023-02-12T06:31:05.930Z,26.27
2023-02-12T06:33:54.645Z,26.67
2023-02-12T06:36:44.409Z,27.17
2023-02-12T06:39:31.653Z,25.10
2023-02-12T06:42:18.612Z,26.43
2023-02-12T06:45:05.815Z,26.50
2023-02-12T06:47:52.997Z,24.63
2023-02-12T06:50:39.957Z,27.83
2023-02-12T06:53:26.909Z,28.37
2023-02-12T06:56:14.221Z,26.70
2023-02-12T06:59:01.266Z,27.77
2023-02-12T07:01:48.239Z,27.20
2023-02-12T07:04:35.153Z,27.17
2023-02-12T07:07:22.103Z,27.17
2023-02-12T07:10:09.692Z,28.33
2023-02-12T07:12:56.652Z,27.23
2023-02-12T07:15:43.688Z,27.80
2023-02-12T07:18:30.617Z,26.47
2023-02-12T07:21:18.407Z,26.60
2023-02-12T07:24:05.575Z,26.80
2023-02-12T07:26:52.630Z,26.03
2023-02-12T07:29:39.636Z,28.70
2023-02-12T07:32:26.582Z,26.57
2023-02-12T07:35:13.539Z,29.00
2023-02-12T07:38:00.479Z,27.43
2023-02-12T07:40:47.394Z,27.73
2023-02-12T07:43:34.405Z,29.20
2023-02-12T07:46:26.249Z,28.03
2023-02-12T07:49:19.031Z,27.83
2023-02-12T07:52:05.948Z,29.27
2023-02-12T07:54:52.889Z,29.30
2023-02-12T07:57:39.857Z,30.70
2023-02-12T08:00:26.792Z,28.27
2023-02-12T08:03:13.738Z,29.13
2023-02-12T08:06:00.645Z,28.03
2023-02-12T08:08:47.772Z,30.10
2023-02-12T08:11:35.106Z,29.73
2023-02-12T08:14:22.309Z,29.70
2023-02-12T08:17:09.314Z,28.87
2023-02-12T08:19:56.228Z,27.97
2023-02-12T08:22:43.153Z,28.27
2023-02-12T08:25:30.082Z,28.33
2023-02-12T08:28:17.120Z,29.03
2023-02-12T08:31:07.190Z,29.23
2023-02-12T08:33:55.449Z,29.80
2023-02-12T08:36:42.535Z,27.37
2023-02-12T08:39:30.611Z,26.67
2023-02-12T08:42:17.638Z,23.27
2023-02-12T08:45:04.842Z,24.40
2023-02-12T08:47:51.813Z,24.90
2023-02-12T08:50:39.002Z,26.40
2023-02-12T08:53:25.947Z,24.90
2023-02-12T08:56:15.725Z,26.00
2023-02-12T08:59:04.946Z,26.17
2023-02-12T09:01:52.531Z,25.20
2023-02-12T09:04:41.025Z,24.57
2023-02-12T09:07:27.973Z,25.87
2023-02-12T09:10:15.670Z,26.13
2023-02-12T09:13:02.643Z,22.77
2023-02-12T09:15:49.847Z,21.53
2023-02-12T09:18:37.877Z,22.23
2023-02-12T09:21:25.430Z,22.97
2023-02-12T09:24:12.388Z,22.63
2023-02-12T09:26:59.333Z,22.30
2023-02-12T09:29:46.277Z,21.00
2023-02-12T09:32:33.291Z,21.67
2023-02-12T09:35:20.263Z,22.40
2023-02-12T09:38:08.255Z,23.40
2023-02-12T09:41:10.264Z,22.43
2023-02-12T09:44:17.414Z,21.70
2023-02-12T09:47:17.860Z,22.73
2023-02-12T09:50:26.944Z,23.63
2023-02-12T09:53:17.496Z,24.07
2023-02-12T09:56:12.951Z,23.50
2023-02-12T09:59:03.078Z,24.27
2023-02-12T10:01:50.044Z,23.53
2023-02-12T10:04:37.497Z,24.20
2023-02-12T10:07:53.509Z,25.30
2023-02-12T10:10:49.364Z,26.07
2023-02-12T10:13:55.255Z,25.07
2023-02-12T10:17:04.056Z,26.37
2023-02-12T10:20:12.425Z,27.67
2023-02-12T10:23:15.868Z,27.70
2023-02-12T10:26:25.789Z,26.17
2023-02-12T10:29:32.319Z,26.30
2023-02-12T10:32:25.772Z,24.33
2023-02-12T10:35:15.528Z,24.73
2023-02-12T10:38:13.887Z,26.70
2023-02-12T10:41:02.019Z,25.03
2023-02-12T10:43:49.024Z,25.70
2023-02-12T10:46:36.001Z,25.60
2023-02-12T10:49:23.192Z,24.50
2023-02-12T10:52:29.994Z,23.73
2023-02-12T10:55:23.961Z,22.93
2023-02-12T10:58:23.031Z,22.50
2023-02-12T11:01:28.397Z,23.10
2023-02-12T11:04:23.120Z,21.97
2023-02-12T11:07:10.063Z,22.70
2023-02-12T11:09:57.303Z,22.77
2023-02-12T11:12:48.240Z,22.73
2023-02-12T11:15:46.552Z,22.60
2023-02-12T11:18:34.803Z,22.37
2023-02-12T11:21:23.241Z,22.00
2023-02-12T11:24:30.687Z,22.60
2023-02-12T11:27:26.237Z,22.03
2023-02-12T11:30:21.349Z,21.13
2023-02-12T11:33:24.203Z,21.73
2023-02-12T11:36:17.802Z,22.87
2023-02-12T11:39:07.733Z,22.40
2023-02-12T11:42:04.792Z,22.27
2023-02-12T11:44:59.349Z,21.17
2023-02-12T11:47:47.839Z,21.33
2023-02-12T11:50:35.305Z,20.53
2023-02-12T11:53:27.175Z,20.87
2023-02-12T11:56:14.782Z,20.20
2023-02-12T11:59:18.388Z,21.50
2023-02-12T12:02:14.068Z,18.00
2023-02-12T12:05:14.532Z,18.10
2023-02-12T12:08:07.382Z,18.90
2023-02-12T12:10:59.894Z,18.03
2023-02-12T12:13:57.725Z,17.20
2023-02-12T12:17:21.608Z,17.97
2023-02-12T12:20:17.251Z,18.90
2023-02-12T12:23:15.316Z,18.83
2023-02-12T12:26:10.801Z,19.10
2023-02-12T12:29:07.517Z,18.90
2023-02-12T12:32:00.680Z,20.03
2023-02-12T12:34:48.255Z,19.10
2023-02-12T12:38:01.904Z,20.43
2023-02-12T12:41:00.852Z,20.00
2023-02-12T12:44:24.365Z,19.90
2023-02-12T12:47:45.372Z,20.33
2023-02-12T12:50:57.048Z,18.97
2023-02-12T12:54:14.858Z,19.00
2023-02-12T12:57:41.005Z,20.43
2023-02-12T13:00:36.783Z,19.60
2023-02-12T13:03:57.620Z,19.10
2023-02-12T13:06:56.134Z,18.87
2023-02-12T13:09:58.323Z,20.00
2023-02-12T13:12:53.509Z,19.33
2023-02-12T13:16:03.911Z,19.50
2023-02-12T13:19:11.083Z,18.70
2023-02-12T13:22:09.068Z,19.33
2023-02-12T13:25:32.905Z,19.97
2023-02-12T13:28:33.649Z,18.87
2023-02-12T13:31:34.574Z,19.40
2023-02-12T13:34:26.482Z,19.47
2023-02-12T13:37:20.443Z,19.70
2023-02-12T13:40:13.999Z,18.73
2023-02-12T13:43:51.685Z,20.10
2023-02-12T13:47:02.289Z,18.93
2023-02-12T13:50:03.263Z,18.87
2023-02-12T13:53:02.260Z,20.30
2023-02-12T13:56:46.641Z,20.70
2023-02-12T13:59:34.172Z,18.47
2023-02-12T14:02:33.052Z,19.07
2023-02-12T14:05:24.366Z,19.00
2023-02-12T14:08:34.737Z,19.03
2023-02-12T14:11:25.571Z,17.73
2023-02-12T14:14:12.901Z,18.50
2023-02-12T14:17:38.624Z,17.43
2023-02-12T14:20:31.755Z,17.27
2023-02-12T14:23:27.563Z,16.47
2023-02-12T14:26:16.278Z,16.07
2023-02-12T14:29:06.617Z,16.20
2023-02-12T14:31:53.670Z,16.20
2023-02-12T14:34:40.724Z,20.20
2023-02-12T14:37:37.795Z,19.27
2023-02-12T14:40:34.157Z,18.93
2023-02-12T14:43:57.864Z,18.23
2023-02-12T14:46:50.686Z,18.77
2023-02-12T14:49:50.470Z,17.67
2023-02-12T14:52:41.070Z,19.00
2023-02-12T14:55:34.267Z,18.63
2023-02-12T14:58:25.561Z,19.27
2023-02-12T15:01:13.214Z,17.57
2023-02-12T15:04:11.405Z,17.67
2023-02-12T15:07:10.425Z,16.43
2023-02-12T15:10:07.361Z,16.73
2023-02-12T15:13:14.100Z,16.73
2023-02-12T15:16:22.862Z,15.63
2023-02-12T15:19:32.046Z,15.03
2023-02-12T15:22:45.011Z,14.63
2023-02-12T15:25:33.411Z,15.23
2023-02-12T15:28:25.737Z,14.73
2023-02-12T15:31:17.047Z,14.90
2023-02-12T15:34:05.787Z,15.20
2023-02-12T15:36:56.659Z,12.57
2023-02-12T15:39:46.676Z,12.13
2023-02-12T15:42:39.067Z,12.33
2023-02-12T15:45:36.452Z,12.63
2023-02-12T15:48:30.221Z,12.00
2023-02-12T15:51:23.449Z,12.10
2023-02-12T15:54:18.834Z,12.80
2023-02-12T15:57:21.302Z,12.10
2023-02-12T16:00:37.144Z,13.13
2023-02-12T16:03:34.958Z,12.67
2023-02-12T16:06:23.557Z,13.47
2023-02-12T16:09:28.811Z,12.83
2023-02-12T16:12:19.337Z,13.50
2023-02-12T16:15:06.670Z,12.57
2023-02-12T16:17:53.739Z,12.40
2023-02-12T16:20:41.599Z,12.27
2023-02-12T16:23:28.595Z,12.73
2023-02-12T16:26:25.104Z,12.57
2023-02-12T16:29:17.995Z,11.00
2023-02-12T16:32:05.099Z,11.93
2023-02-12T16:35:03.045Z,10.87
2023-02-12T16:37:56.331Z,11.30
2023-02-12T16:41:18.219Z,10.87
2023-02-12T16:44:05.085Z,11.17
2023-02-12T16:46:55.569Z,11.60
2023-02-12T16:49:53.838Z,10.90
2023-02-12T16:52:41.244Z,11.33
2023-02-12T16:55:28.204Z,10.47
2023-02-12T16:58:15.304Z,10.17
2023-02-12T17:01:04.154Z,10.67
2023-02-12T17:03:52.327Z,10.63
2023-02-12T17:06:39.299Z,11.33
2023-02-12T17:09:26.342Z,11.13
2023-02-12T17:12:13.367Z,11.27
2023-02-12T17:15:04.227Z,11.30
2023-02-12T17:17:51.259Z,11.23
2023-02-12T17:20:38.691Z,11.03
2023-02-12T17:23:26.501Z,9.67
2023-02-12T17:26:13.524Z,9.37
2023-02-12T17:29:05.246Z,9.70
2023-02-12T17:31:56.151Z,10.30
2023-02-12T17:34:48.923Z,10.30
2023-02-12T17:37:36.532Z,10.33
2023-02-12T17:40:23.561Z,10.07
2023-02-12T17:43:10.631Z,10.33
2023-02-12T17:45:57.953Z,10.50
2023-02-12T17:48:44.965Z,9.83
2023-02-12T17:51:32.265Z,9.00
2023-02-12T17:54:19.319Z,9.60
2023-02-12T17:57:06.354Z,9.90
2023-02-12T17:59:53.345Z,10.13
2023-02-12T18:02:40.300Z,9.37
2023-02-12T18:05:27.265Z,9.83
2023-02-12T18:08:14.512Z,9.60
2023-02-12T18:11:10.226Z,9.53
2023-02-12T18:13:59.650Z,9.53
2023-02-12T18:16:47.375Z,9.80
2023-02-12T18:19:34.895Z,11.47
2023-02-12T18:22:22.667Z,13.30
2023-02-12T18:25:09.773Z,13.10
2023-02-12T18:27:56.877Z,10.70
2023-02-12T18:30:43.962Z,10.13
2023-02-12T18:33:31.522Z,11.40
2023-02-12T18:36:20.341Z,12.30
2023-02-12T18:39:07.438Z,12.60
2023-02-12T18:41:54.466Z,14.43
2023-02-12T18:44:42.744Z,14.53
2023-02-12T18:47:29.751Z,16.10
2023-02-12T18:50:16.922Z,13.73
2023-02-12T18:53:04.774Z,15.83
2023-02-12T18:55:52.343Z,16.67
2023-02-12T18:58:39.700Z,16.87
2023-02-12T19:01:27.995Z,16.47
2023-02-12T19:04:16.102Z,16.33
2023-02-12T19:07:03.396Z,15.47
2023-02-12T19:09:50.719Z,14.47
2023-02-12T19:12:37.775Z,14.00
2023-02-12T19:15:25.010Z,16.37
2023-02-12T19:18:12.110Z,19.00
2023-02-12T19:20:59.299Z,15.37
2023-02-12T19:23:46.359Z,12.83
2023-02-12T19:26:35.512Z,13.03
2023-02-12T19:29:22.578Z,15.03
2023-02-12T19:32:10.842Z,15.63
2023-02-12T19:34:57.917Z,16.47
2023-02-12T19:37:44.920Z,14.93
2023-02-12T19:40:32.200Z,13.33
2023-02-12T19:43:19.178Z,14.20
2023-02-12T19:46:09.641Z,14.53
2023-02-12T19:48:59.638Z,15.87
2023-02-12T19:51:46.885Z,15.40
2023-02-12T19:54:34.441Z,17.30
2023-02-12T19:57:21.377Z,20.23
2023-02-12T20:00:09.058Z,25.27
2023-02-12T20:02:56.000Z,23.57
2023-02-12T20:05:46.417Z,21.23
2023-02-12T20:08:33.357Z,30.63
2023-02-12T20:11:23.372Z,35.20
2023-02-12T20:14:12.499Z,28.67
2023-02-12T20:16:59.475Z,32.03
2023-02-12T20:19:46.443Z,29.23
2023-02-12T20:22:33.395Z,26.87
2023-02-12T20:25:20.405Z,29.60
2023-02-12T20:28:07.343Z,30.17
2023-02-12T20:30:54.999Z,27.03
2023-02-12T20:33:43.042Z,29.53
2023-02-12T20:36:32.964Z,29.73
2023-02-12T20:39:20.725Z,29.80
2023-02-12T20:42:07.685Z,25.07
2023-02-12T20:44:54.622Z,25.23
2023-02-12T20:47:41.543Z,25.83
2023-02-12T20:50:28.486Z,27.07
2023-02-12T20:53:15.568Z,26.53
2023-02-12T20:56:10.791Z,25.40
2023-02-12T20:58:58.654Z,23.13
2023-02-12T21:01:45.701Z,19.47
2023-02-12T21:04:32.863Z,18.77
2023-02-12T21:07:19.802Z,16.43
2023-02-12T21:10:07.272Z,14.87
2023-02-12T21:12:54.228Z,15.83
2023-02-12T21:15:41.292Z,13.83
2023-02-12T21:18:29.822Z,13.90
2023-02-12T21:21:19.981Z,14.73
2023-02-12T21:24:09.115Z,16.57
2023-02-12T21:26:56.298Z,16.73
2023-02-12T21:29:43.240Z,15.83
2023-02-12T21:32:31.812Z,17.43
2023-02-12T21:35:18.910Z,17.70
2023-02-12T21:38:05.832Z,16.83
2023-02-12T21:40:52.761Z,15.70
2023-02-12T21:43:41.943Z,16.03
2023-02-12T21:46:29.484Z,16.00
2023-02-12T21:49:24.669Z,15.50
2023-02-12T21:52:11.700Z,16.50
2023-02-12T21:54:58.646Z,16.07
2023-02-12T21:57:47.234Z,15.23
2023-02-12T22:00:34.657Z,14.77
2023-02-12T22:03:22.135Z,15.10
2023-02-12T22:06:09.091Z,14.53
2023-02-12T22:09:00.799Z,15.20
2023-02-12T22:11:47.880Z,15.70
2023-02-12T22:14:34.821Z,15.27
2023-02-12T22:17:21.856Z,15.00
2023-02-12T22:20:09.188Z,15.43
2023-02-12T22:22:56.102Z,14.93
2023-02-12T22:25:43.048Z,14.60
2023-02-12T22:28:30.021Z,15.80
2023-02-12T22:31:21.914Z,15.50
2023-02-12T22:34:16.128Z,15.80
2023-02-12T22:37:03.064Z,16.73
2023-02-12T22:39:50.551Z,17.03
2023-02-12T22:42:37.565Z,16.90
2023-02-12T22:45:24.557Z,16.47
2023-02-12T22:48:11.507Z,17.83
2023-02-12T22:50:59.283Z,16.33
2023-02-12T22:53:47.062Z,16.43
2023-02-12T22:56:34.138Z,16.73
2023-02-12T22:59:21.090Z,16.60
2023-02-12T23:02:08.015Z,13.20
2023-02-12T23:04:54.943Z,11.53
2023-02-12T23:07:41.856Z,11.20
2023-02-12T23:10:29.074Z,11.50
2023-02-12T23:13:29.054Z,9.80
2023-02-12T23:16:16.966Z,10.33
2023-02-12T23:19:04.018Z,11.63
2023-02-12T23:21:50.948Z,10.73
2023-02-12T23:24:37.957Z,11.93
2023-02-12T23:27:24.901Z,11.47
2023-02-12T23:30:12.325Z,11.23
2023-02-12T23:32:59.350Z,12.13
2023-02-12T23:35:47.603Z,11.70
2023-02-12T23:38:34.565Z,13.27
2023-02-12T23:41:21.573Z,12.50
2023-02-12T23:44:10.022Z,12.73
2023-02-12T23:46:57.406Z,12.23
2023-02-12T23:49:44.415Z,11.57
2023-02-12T23:52:31.380Z,12.30
2023-02-12T23:55:20.119Z,12.40
2023-02-12T23:58:07.824Z,11.67
